Time;durP1;ratioP1;P1;durP2;ratioP2;P2;SDS_P1;SDS_P2;PMS_P1;PMS_P2;Temp;Humidity;BMP_temperature;BMP_pressure;BME280_temperature;BME280_humidity;BME280_pressure;Samples;Min_cycle;Max_cycle;Signal;HPM_P1;HPM_P2
2022/09/10 00:01:23;;;;;;;0.70;0.70;;;18.40;77.00;18.70;96382.00;;;;5098622;28;20202;-88
2022/09/10 00:03:53;;;;;;;1.07;0.67;;;18.40;76.10;18.70;96379.00;;;;5109520;28;20648;-86
2022/09/10 00:06:24;;;;;;;0.73;0.40;;;18.40;76.00;18.70;96377.00;;;;5094064;28;20286;-88
2022/09/10 00:08:52;;;;;;;0.40;0.40;;;18.40;76.00;18.70;96382.00;;;;5111084;28;20194;-86
2022/09/10 00:11:21;;;;;;;0.33;0.20;;;18.40;76.00;18.70;96389.00;;;;5103503;28;20187;-86
2022/09/10 00:13:49;;;;;;;0.37;0.37;;;18.40;75.80;18.60;96388.00;;;;5099732;28;20230;-86
2022/09/10 00:16:18;;;;;;;0.77;0.70;;;18.40;75.90;18.60;96382.00;;;;5099938;28;20633;-86
2022/09/10 00:18:47;;;;;;;0.60;0.40;;;18.30;75.80;18.60;96384.00;;;;5097176;28;20711;-86
2022/09/10 00:21:19;;;;;;;0.40;0.40;;;18.30;75.80;18.60;96389.00;;;;5102087;28;20198;-86
2022/09/10 00:23:47;;;;;;;0.60;0.40;;;18.30;76.00;18.60;96395.00;;;;5106661;28;20214;-86
2022/09/10 00:26:20;;;;;;;0.33;0.33;;;18.30;76.00;18.50;96398.00;;;;5103681;28;20286;-87
2022/09/10 00:28:49;;;;;;;1.30;0.30;;;18.30;76.00;18.50;96401.00;;;;5098820;28;20206;-86
2022/09/10 00:31:17;;;;;;;1.27;0.80;;;18.30;75.90;18.50;96401.00;;;;5099644;28;20344;-87
2022/09/10 00:33:44;;;;;;;0.20;0.20;;;18.30;75.70;18.50;96397.00;;;;5096183;28;20823;-86
2022/09/10 00:36:18;;;;;;;0.20;0.20;;;18.20;75.70;18.50;96397.00;;;;5092298;28;20195;-86
2022/09/10 00:38:45;;;;;;;0.30;0.30;;;18.20;75.70;18.40;96392.00;;;;5102605;28;20203;-86
2022/09/10 00:41:13;;;;;;;1.10;0.40;;;18.20;75.70;18.40;96398.00;;;;5097978;28;20632;-86
2022/09/10 00:43:55;;;;;;;0.50;0.40;;;18.20;75.70;18.40;96401.00;;;;5111671;28;20260;-88
2022/09/10 00:46:36;;;;;;;0.53;0.30;;;18.20;75.80;18.40;96396.00;;;;5103560;28;20198;-85
2022/09/10 00:49:13;;;;;;;0.20;0.20;;;18.10;75.70;18.30;96403.00;;;;5108428;28;20222;-86
2022/09/10 00:51:41;;;;;;;0.90;0.40;;;18.10;76.20;18.30;96392.00;;;;5106321;28;20207;-86
2022/09/10 00:54:08;;;;;;;1.70;0.30;;;18.10;75.50;18.30;96384.00;;;;5109934;28;20222;-86
2022/09/10 00:56:36;;;;;;;0.57;0.30;;;18.10;75.50;18.30;96389.00;;;;5106362;28;20197;-86
2022/09/10 00:59:13;;;;;;;0.20;0.20;;;18.10;76.30;18.30;96392.00;;;;5115611;28;20285;-86
2022/09/10 01:01:40;;;;;;;0.53;0.27;;;18.00;75.70;18.30;96389.00;;;;5115180;28;20285;-86
2022/09/10 01:04:09;;;;;;;0.30;0.30;;;18.00;75.80;18.30;96388.00;;;;5108640;28;20219;-87
2022/09/10 01:06:38;;;;;;;0.50;0.50;;;18.00;75.80;18.30;96390.00;;;;5103351;28;20206;-86
2022/09/10 01:09:06;;;;;;;0.70;0.70;;;18.00;75.60;18.30;96381.00;;;;5115553;28;20202;-86
2022/09/10 01:11:55;;;;;;;0.60;0.60;;;18.00;75.40;18.30;96383.00;;;;5115623;27;20226;-86
2022/09/10 01:15:04;;;;;;;0.37;0.37;;;18.00;75.80;18.20;96383.00;;;;5105726;28;21664;-85
2022/09/10 01:17:50;;;;;;;0.37;0.27;;;18.00;75.60;18.20;96377.00;;;;5103092;28;20187;-86
2022/09/10 01:20:52;;;;;;;0.73;0.30;;;18.00;75.50;18.20;96379.00;;;;5094364;28;20245;-86
2022/09/10 01:24:11;;;;;;;0.97;0.30;;;18.00;75.80;18.20;96372.00;;;;5096260;28;20715;-86
2022/09/10 01:27:14;;;;;;;0.20;0.20;;;17.90;75.80;18.20;96379.00;;;;5112303;28;20266;-87
2022/09/10 01:29:50;;;;;;;0.43;0.17;;;17.90;75.40;18.10;96368.00;;;;5106183;28;20198;-86
2022/09/10 01:32:26;;;;;;;1.30;0.20;;;17.90;76.00;18.10;96375.00;;;;5113974;28;20206;-86
2022/09/10 01:35:07;;;;;;;0.23;0.23;;;17.90;75.40;18.10;96372.00;;;;5102078;28;20213;-86
2022/09/10 01:37:39;;;;;;;0.30;0.23;;;17.80;75.30;18.10;96371.00;;;;5092929;28;20286;-87
2022/09/10 01:40:09;;;;;;;0.20;0.20;;;17.80;75.40;18.10;96371.00;;;;5092722;28;20203;-87
2022/09/10 01:42:39;;;;;;;0.30;0.20;;;17.80;75.30;18.10;96368.00;;;;5107176;28;20274;-86
2022/09/10 01:45:13;;;;;;;0.87;0.20;;;17.80;76.10;18.10;96362.00;;;;5102204;28;20652;-88
2022/09/10 01:48:14;;;;;;;0.40;0.20;;;17.80;75.50;18.00;96367.00;;;;5112879;28;20625;-86
2022/09/10 01:50:52;;;;;;;0.80;0.30;;;17.80;75.60;18.00;96370.00;;;;5112526;28;20286;-87
2022/09/10 01:53:47;;;;;;;0.43;0.20;;;17.80;75.30;18.00;96370.00;;;;5106000;28;20662;-86
2022/09/10 01:56:34;;;;;;;1.20;0.20;;;17.80;75.50;18.00;96372.00;;;;5108920;28;20205;-86
2022/09/10 01:59:17;;;;;;;0.10;0.10;;;17.70;75.30;18.00;96366.00;;;;5113954;28;20255;-87
2022/09/10 02:01:52;;;;;;;0.30;0.20;;;17.70;75.20;18.00;96361.00;;;;5113906;28;20208;-86
2022/09/10 02:04:22;;;;;;;0.10;0.10;;;17.70;75.30;17.90;96361.00;;;;5104516;28;20293;-87
2022/09/10 02:06:51;;;;;;;0.97;0.30;;;17.70;76.20;17.90;96362.00;;;;5101918;28;20270;-86
2022/09/10 02:09:19;;;;;;;1.57;0.30;;;17.70;75.80;17.90;96344.00;;;;5093692;28;20214;-86
2022/09/10 02:11:51;;;;;;;0.50;0.30;;;17.70;76.00;18.00;96347.00;;;;5093500;28;20230;-85
2022/09/10 02:14:20;;;;;;;0.27;0.20;;;17.60;76.00;17.90;96350.00;;;;5104439;28;20223;-86
2022/09/10 02:16:57;;;;;;;0.43;0.30;;;17.60;76.10;18.00;96357.00;;;;5103718;28;20191;-86
2022/09/10 02:19:25;;;;;;;0.20;0.20;;;17.60;76.40;18.00;96349.00;;;;5114475;27;20198;-86
2022/09/10 02:21:56;;;;;;;0.20;0.13;;;17.60;76.20;18.00;96346.00;;;;5113520;28;20752;-84
2022/09/10 02:24:23;;;;;;;0.67;0.43;;;17.60;76.40;18.00;96344.00;;;;5104539;28;20215;-84
2022/09/10 02:26:50;;;;;;;0.40;0.20;;;17.60;76.40;18.00;96340.00;;;;5092753;28;20218;-84
2022/09/10 02:29:18;;;;;;;0.20;0.20;;;17.70;76.60;18.00;96339.00;;;;5103112;28;20191;-84
2022/09/10 02:31:46;;;;;;;0.30;0.23;;;17.70;76.60;18.00;96337.00;;;;5107854;28;20602;-84
2022/09/10 02:34:15;;;;;;;0.20;0.20;;;17.70;76.60;18.00;96344.00;;;;5104631;28;20222;-84
2022/09/10 02:36:42;;;;;;;0.63;0.10;;;17.70;76.60;18.00;96338.00;;;;5103561;28;20202;-84
2022/09/10 02:39:10;;;;;;;0.20;0.20;;;17.70;76.50;18.00;96335.00;;;;5099976;28;20340;-84
2022/09/10 02:41:39;;;;;;;0.43;0.20;;;17.70;76.40;18.00;96329.00;;;;5104305;28;20255;-84
2022/09/10 02:44:07;;;;;;;0.20;0.20;;;17.70;76.40;18.00;96329.00;;;;5108052;28;20219;-84
2022/09/10 02:46:34;;;;;;;1.57;0.30;;;17.70;76.40;18.00;96338.00;;;;5105361;28;20217;-85
2022/09/10 02:49:01;;;;;;;0.43;0.20;;;17.70;76.40;18.00;96331.00;;;;5104962;28;20651;-84
2022/09/10 02:51:30;;;;;;;0.20;0.20;;;17.70;76.50;18.00;96324.00;;;;5095823;28;20225;-84
2022/09/10 02:53:57;;;;;;;0.30;0.30;;;17.70;76.60;18.00;96332.00;;;;5113053;28;20250;-85
2022/09/10 02:56:24;;;;;;;1.23;0.40;;;17.70;76.40;18.00;96333.00;;;;5112690;28;20278;-86
2022/09/10 02:58:51;;;;;;;0.43;0.20;;;17.70;76.30;18.00;96335.00;;;;5113304;28;20216;-86
2022/09/10 03:01:21;;;;;;;0.20;0.20;;;17.70;77.10;18.00;96339.00;;;;5099156;28;20564;-85
2022/09/10 03:03:51;;;;;;;0.37;0.30;;;17.70;76.30;18.00;96333.00;;;;5112534;28;20249;-86
2022/09/10 03:06:20;;;;;;;0.20;0.20;;;17.70;76.20;18.00;96339.00;;;;5112385;28;20286;-85
2022/09/10 03:08:48;;;;;;;0.50;0.37;;;17.70;76.10;17.90;96327.00;;;;5113306;28;20306;-85
2022/09/10 03:11:16;;;;;;;0.30;0.20;;;17.60;76.10;17.90;96327.00;;;;5102469;28;20648;-86
2022/09/10 03:13:44;;;;;;;1.07;0.37;;;17.60;76.10;17.90;96323.00;;;;5099705;28;20231;-85
2022/09/10 03:16:12;;;;;;;0.83;0.47;;;17.60;76.00;17.90;96322.00;;;;5102488;28;20295;-85
2022/09/10 03:18:40;;;;;;;0.50;0.20;;;17.60;76.00;17.90;96328.00;;;;5112928;28;20223;-86
2022/09/10 03:21:13;;;;;;;1.23;0.40;;;17.60;76.00;17.90;96326.00;;;;5105992;28;20187;-86
2022/09/10 03:23:41;;;;;;;0.20;0.20;;;17.60;75.70;17.80;96327.00;;;;5111096;28;20227;-86
2022/09/10 03:26:10;;;;;;;0.60;0.20;;;17.60;75.60;17.80;96327.00;;;;5111525;28;20298;-85
2022/09/10 03:28:37;;;;;;;0.20;0.20;;;17.60;75.50;17.80;96329.00;;;;5111782;28;20285;-86
2022/09/10 03:31:05;;;;;;;0.47;0.20;;;17.50;75.40;17.80;96339.00;;;;5106361;28;20191;-86
2022/09/10 03:33:32;;;;;;;0.20;0.20;;;17.50;75.60;17.70;96338.00;;;;5109721;28;20222;-85
2022/09/10 03:36:00;;;;;;;0.27;0.23;;;17.50;75.70;17.70;96345.00;;;;5112541;28;20639;-86
2022/09/10 03:38:28;;;;;;;0.40;0.33;;;17.50;75.80;17.70;96332.00;;;;5112574;28;20635;-86
2022/09/10 03:40:56;;;;;;;0.83;0.40;;;17.50;76.00;17.80;96341.00;;;;5107128;28;20227;-86
2022/09/10 03:43:25;;;;;;;0.63;0.30;;;17.40;76.10;17.80;96338.00;;;;5107998;28;20210;-86
2022/09/10 03:45:52;;;;;;;0.87;0.23;;;17.40;76.20;17.70;96336.00;;;;5112305;28;20620;-86
2022/09/10 03:48:21;;;;;;;1.07;0.20;;;17.40;76.10;17.70;96341.00;;;;5112477;28;20208;-86
2022/09/10 03:50:49;;;;;;;0.30;0.30;;;17.40;76.00;17.70;96350.00;;;;5108725;28;20274;-85
2022/09/10 03:53:19;;;;;;;0.20;0.20;;;17.40;75.70;17.70;96344.00;;;;5105332;28;20238;-85
2022/09/10 03:55:49;;;;;;;0.57;0.17;;;17.40;75.60;17.60;96344.00;;;;5096352;28;20208;-85
2022/09/10 03:58:17;;;;;;;0.50;0.30;;;17.40;75.50;17.60;96338.00;;;;5104052;28;20230;-86
2022/09/10 04:00:46;;;;;;;0.20;0.20;;;17.30;75.40;17.60;96339.00;;;;5098708;28;20199;-85
2022/09/10 04:03:14;;;;;;;0.43;0.27;;;17.30;75.20;17.50;96339.00;;;;5102314;28;20215;-86
2022/09/10 04:05:43;;;;;;;0.60;0.50;;;17.30;75.10;17.50;96343.00;;;;5107681;28;20199;-85
2022/09/10 04:08:11;;;;;;;0.30;0.30;;;17.30;75.00;17.40;96344.00;;;;5103313;28;20193;-85
2022/09/10 04:10:39;;;;;;;0.90;0.40;;;17.20;75.10;17.40;96340.00;;;;5102830;28;20286;-86
2022/09/10 04:13:06;;;;;;;0.30;0.30;;;17.20;75.30;17.40;96341.00;;;;5097781;28;20218;-86
2022/09/10 04:15:33;;;;;;;0.40;0.20;;;17.20;75.40;17.40;96338.00;;;;5109457;28;20232;-85
2022/09/10 04:18:02;;;;;;;0.40;0.23;;;17.10;75.60;17.40;96333.00;;;;5112037;28;20231;-85
2022/09/10 04:20:29;;;;;;;1.00;0.40;;;17.20;75.80;17.40;96335.00;;;;5110809;28;20222;-85
2022/09/10 04:22:56;;;;;;;0.93;0.33;;;17.10;75.80;17.40;96331.00;;;;5104067;28;20306;-85
2022/09/10 04:25:24;;;;;;;0.70;0.30;;;17.20;76.10;17.40;96335.00;;;;5113215;28;20655;-85
2022/09/10 04:27:51;;;;;;;0.33;0.33;;;17.20;76.10;17.40;96328.00;;;;5115745;28;20300;-86
2022/09/10 04:30:19;;;;;;;0.53;0.30;;;17.10;76.00;17.40;96335.00;;;;5107329;28;20191;-85
2022/09/10 04:32:46;;;;;;;1.00;0.40;;;17.10;75.80;17.40;96331.00;;;;5114569;28;20222;-85
2022/09/10 04:35:15;;;;;;;0.40;0.40;;;17.10;75.80;17.40;96323.00;;;;5115341;27;20313;-85
2022/09/10 04:37:43;;;;;;;1.50;0.50;;;17.10;75.90;17.30;96327.00;;;;5115631;28;20214;-85
2022/09/10 04:40:11;;;;;;;0.50;0.50;;;17.10;75.90;17.40;96332.00;;;;5112948;28;20195;-85
2022/09/10 04:42:38;;;;;;;1.17;0.30;;;17.10;75.90;17.30;96326.00;;;;5104318;28;20302;-86
2022/09/10 04:45:07;;;;;;;0.20;0.20;;;17.00;75.80;17.30;96331.00;;;;5108198;28;20653;-85
2022/09/10 04:47:35;;;;;;;0.30;0.30;;;17.00;75.80;17.30;96333.00;;;;5103421;28;20223;-84
2022/09/10 04:50:02;;;;;;;1.60;0.30;;;17.00;76.00;17.30;96331.00;;;;5107833;28;20213;-88
2022/09/10 04:52:30;;;;;;;1.90;0.30;;;17.10;76.30;17.30;96332.00;;;;5126668;22;20230;-85
2022/09/10 04:54:58;;;;;;;0.67;0.30;;;17.00;76.20;17.40;96339.00;;;;5113039;28;20220;-85
2022/09/10 04:57:26;;;;;;;0.93;0.53;;;17.10;76.20;17.40;96341.00;;;;5099457;28;20183;-85
2022/09/10 04:59:54;;;;;;;1.10;0.30;;;17.10;76.30;17.30;96329.00;;;;5103403;28;20236;-85
2022/09/10 05:02:21;;;;;;;0.30;0.30;;;17.00;76.30;17.40;96338.00;;;;5105449;28;20218;-85
2022/09/10 05:04:49;;;;;;;0.83;0.30;;;17.00;76.30;17.40;96337.00;;;;5108830;28;20674;-85
2022/09/10 05:07:16;;;;;;;1.50;0.30;;;17.00;76.40;17.40;96333.00;;;;5107372;28;20195;-85
2022/09/10 05:09:45;;;;;;;0.50;0.20;;;17.00;76.50;17.40;96341.00;;;;5108264;28;20232;-85
2022/09/10 05:12:12;;;;;;;2.10;0.30;;;17.00;76.60;17.40;96348.00;;;;5105411;28;20219;-85
2022/09/10 05:14:39;;;;;;;0.30;0.30;;;17.10;76.70;17.40;96344.00;;;;5105745;28;20663;-85
2022/09/10 05:17:06;;;;;;;0.63;0.40;;;17.10;76.80;17.40;96348.00;;;;5114910;28;20629;-85
2022/09/10 05:19:33;;;;;;;0.77;0.30;;;17.10;76.80;17.50;96345.00;;;;5114173;28;20201;-85
2022/09/10 05:22:00;;;;;;;0.30;0.30;;;17.10;76.80;17.50;96356.00;;;;5113190;28;20226;-85
2022/09/10 05:24:27;;;;;;;1.20;0.30;;;17.10;77.00;17.50;96351.00;;;;5096998;28;20289;-85
2022/09/10 05:26:56;;;;;;;0.47;0.40;;;17.10;77.20;17.50;96356.00;;;;5093850;28;20282;-85
2022/09/10 05:29:23;;;;;;;0.20;0.20;;;17.20;77.60;17.60;96359.00;;;;5094017;28;20203;-83
2022/09/10 05:31:50;;;;;;;0.30;0.30;;;17.20;77.60;17.60;96355.00;;;;5104416;28;20217;-83
2022/09/10 05:34:17;;;;;;;0.30;0.30;;;17.20;77.60;17.60;96359.00;;;;5114431;28;20214;-83
2022/09/10 05:36:44;;;;;;;0.40;0.40;;;17.20;78.40;17.70;96362.00;;;;5114258;28;20221;-83
2022/09/10 05:39:11;;;;;;;0.37;0.30;;;17.30;78.20;17.70;96368.00;;;;5114476;28;20198;-83
2022/09/10 05:41:38;;;;;;;0.60;0.43;;;17.30;77.90;17.70;96375.00;;;;5105029;28;20294;-83
2022/09/10 05:44:07;;;;;;;0.30;0.30;;;17.30;78.00;17.80;96371.00;;;;5101771;28;20286;-83
2022/09/10 05:46:34;;;;;;;0.67;0.50;;;17.40;78.20;17.80;96377.00;;;;5114430;28;20226;-84
2022/09/10 05:49:01;;;;;;;1.03;0.33;;;17.40;78.30;17.90;96365.00;;;;5119107;28;20233;-83
2022/09/10 05:51:29;;;;;;;2.27;0.40;;;17.50;78.40;17.90;96370.00;;;;5107621;27;20559;-84
2022/09/10 05:53:57;;;;;;;0.97;0.30;;;17.50;78.40;18.00;96381.00;;;;5106512;28;20296;-83
2022/09/10 05:56:25;;;;;;;0.20;0.20;;;17.50;78.40;18.00;96375.00;;;;5104509;28;20207;-83
2022/09/10 05:58:52;;;;;;;0.33;0.33;;;17.60;79.20;18.10;96382.00;;;;5118491;28;20269;-83
2022/09/10 06:01:20;;;;;;;0.83;0.40;;;17.60;78.50;18.10;96383.00;;;;5109351;28;20191;-83
2022/09/10 06:03:48;;;;;;;0.30;0.30;;;17.70;78.70;18.20;96386.00;;;;5105109;28;20222;-83
2022/09/10 06:06:15;;;;;;;0.30;0.30;;;17.70;78.80;18.30;96390.00;;;;5096580;28;20562;-83
2022/09/10 06:08:43;;;;;;;1.43;0.43;;;17.80;78.90;18.30;96390.00;;;;5096471;28;20230;-83
2022/09/10 06:11:11;;;;;;;1.30;0.43;;;17.80;78.90;18.40;96392.00;;;;5102267;28;20233;-83
2022/09/10 06:13:41;;;;;;;0.40;0.40;;;17.80;79.00;18.40;96399.00;;;;5113980;28;20249;-83
2022/09/10 06:16:08;;;;;;;0.70;0.50;;;17.90;79.10;18.50;96394.00;;;;5108944;28;20223;-83
2022/09/10 06:18:37;;;;;;;0.20;0.20;;;17.90;79.10;18.60;96405.00;;;;5105602;28;20286;-83
2022/09/10 06:21:07;;;;;;;0.30;0.27;;;18.00;79.00;18.60;96403.00;;;;5106991;28;20201;-84
2022/09/10 06:23:36;;;;;;;0.43;0.40;;;18.00;78.80;18.70;96408.00;;;;5101728;28;20217;-84
2022/09/10 06:26:07;;;;;;;0.27;0.20;;;18.10;78.80;18.70;96406.00;;;;5102071;28;20564;-83
2022/09/10 06:28:35;;;;;;;0.30;0.30;;;18.20;79.50;18.80;96411.00;;;;5097066;28;20676;-85
2022/09/10 06:31:03;;;;;;;1.57;0.60;;;18.20;78.80;18.80;96414.00;;;;5117610;28;20274;-85
2022/09/10 06:33:31;;;;;;;0.97;0.57;;;18.30;78.80;18.80;96423.00;;;;5111657;28;20214;-85
2022/09/10 06:36:02;;;;;;;0.43;0.30;;;18.30;78.80;18.90;96427.00;;;;5115395;28;20246;-85
2022/09/10 06:38:32;;;;;;;0.73;0.30;;;18.30;78.90;18.90;96424.00;;;;5116231;28;20201;-86
2022/09/10 06:41:03;;;;;;;0.70;0.40;;;18.30;78.90;18.80;96417.00;;;;5116044;28;20198;-85
2022/09/10 06:43:35;;;;;;;0.43;0.20;;;18.30;78.90;18.80;96426.00;;;;5106635;28;20610;-84
2022/09/10 06:46:04;;;;;;;0.20;0.20;;;18.40;79.20;18.80;96419.00;;;;5115649;28;20214;-85
2022/09/10 06:48:31;;;;;;;0.30;0.20;;;18.40;79.20;18.80;96420.00;;;;5115191;27;20203;-85
2022/09/10 06:51:01;;;;;;;0.40;0.20;;;18.40;79.40;18.80;96422.00;;;;5116939;28;20226;-82
2022/09/10 06:53:32;;;;;;;0.40;0.30;;;18.40;79.40;18.80;96427.00;;;;5106489;28;20230;-82
2022/09/10 06:56:01;;;;;;;2.10;0.30;;;18.40;79.40;18.80;96424.00;;;;5115350;28;20225;-82
2022/09/10 06:58:31;;;;;;;0.50;0.30;;;18.40;79.40;18.80;96425.00;;;;5115532;28;20203;-82
2022/09/10 07:00:58;;;;;;;0.63;0.40;;;18.40;79.40;18.80;96427.00;;;;5115409;28;20194;-82
2022/09/10 07:03:25;;;;;;;0.50;0.40;;;18.40;79.50;18.90;96424.00;;;;5112117;28;20218;-82
2022/09/10 07:05:52;;;;;;;0.30;0.30;;;18.40;80.40;18.90;96423.00;;;;5107152;28;20195;-82
2022/09/10 07:08:21;;;;;;;0.53;0.20;;;18.40;79.80;18.90;96422.00;;;;5106825;28;20191;-82
2022/09/10 07:10:49;;;;;;;0.40;0.40;;;18.40;79.90;19.00;96431.00;;;;5110516;28;20201;-81
2022/09/10 07:13:16;;;;;;;0.47;0.30;;;18.40;80.00;19.00;96428.00;;;;5106810;28;20242;-82
2022/09/10 07:15:48;;;;;;;0.50;0.40;;;18.50;80.10;19.10;96428.00;;;;5108581;28;20763;-83
2022/09/10 07:18:15;;;;;;;0.40;0.40;;;18.50;80.00;19.10;96431.00;;;;5102025;28;20763;-82
2022/09/10 07:20:44;;;;;;;1.00;0.30;;;18.50;79.80;19.20;96437.00;;;;5109092;28;20273;-81
2022/09/10 07:23:12;;;;;;;1.00;0.57;;;18.60;80.00;19.20;96436.00;;;;5108017;28;20311;-82
2022/09/10 07:25:41;;;;;;;0.80;0.80;;;18.60;80.20;19.30;96440.00;;;;5105521;28;20221;-82
2022/09/10 07:28:12;;;;;;;3.60;0.47;;;18.70;80.30;19.30;96431.00;;;;5116166;28;20225;-83
2022/09/10 07:30:39;;;;;;;0.40;0.40;;;18.70;80.40;19.40;96439.00;;;;5106742;28;20682;-82
2022/09/10 07:33:06;;;;;;;0.53;0.53;;;18.80;80.30;19.40;96441.00;;;;5112551;28;20206;-82
2022/09/10 07:35:35;;;;;;;0.57;0.57;;;18.80;80.40;19.50;96430.00;;;;5105748;28;20309;-83
2022/09/10 07:38:02;;;;;;;0.90;0.90;;;18.90;80.40;19.50;96429.00;;;;5113293;28;20195;-83
2022/09/10 07:40:31;;;;;;;1.70;0.80;;;18.90;80.30;19.60;96431.00;;;;5105468;28;20286;-82
2022/09/10 07:43:00;;;;;;;0.60;0.57;;;19.00;80.40;19.60;96431.00;;;;5112623;28;20210;-83
2022/09/10 07:45:29;;;;;;;0.93;0.53;;;19.00;80.50;19.70;96442.00;;;;5112470;28;20290;-83
2022/09/10 07:47:56;;;;;;;0.70;0.40;;;19.00;80.50;19.70;96442.00;;;;5106476;28;20213;-83
2022/09/10 07:50:23;;;;;;;0.30;0.30;;;19.10;80.60;19.80;96447.00;;;;5104364;28;20218;-83
2022/09/10 07:52:51;;;;;;;0.40;0.40;;;19.20;80.70;19.80;96446.00;;;;5107426;28;20535;-83
2022/09/10 07:55:18;;;;;;;0.77;0.20;;;19.20;80.40;19.80;96446.00;;;;5091450;28;20310;-83
2022/09/10 07:57:45;;;;;;;0.97;0.40;;;19.20;80.20;19.80;96447.00;;;;5100641;28;20293;-83
2022/09/10 08:00:15;;;;;;;0.50;0.30;;;19.30;80.10;19.90;96452.00;;;;5114325;28;20203;-83
2022/09/10 08:02:44;;;;;;;0.47;0.30;;;19.30;80.10;19.90;96451.00;;;;5111287;28;20301;-83
2022/09/10 08:05:12;;;;;;;0.80;0.30;;;19.30;80.00;19.90;96456.00;;;;5100666;28;20205;-83
2022/09/10 08:07:41;;;;;;;0.30;0.30;;;19.30;80.00;20.00;96456.00;;;;5113495;28;20289;-83
2022/09/10 08:10:10;;;;;;;0.60;0.33;;;19.40;80.20;20.10;96453.00;;;;5115033;28;20272;-84
2022/09/10 08:12:38;;;;;;;0.40;0.27;;;19.50;80.30;20.10;96455.00;;;;5109241;28;20650;-83
2022/09/10 08:15:08;;;;;;;0.73;0.30;;;19.50;80.30;20.20;96459.00;;;;5099906;28;20695;-83
2022/09/10 08:17:37;;;;;;;0.53;0.23;;;19.50;80.30;20.20;96468.00;;;;5104766;28;20269;-82
2022/09/10 08:20:06;;;;;;;0.60;0.20;;;19.60;80.20;20.30;96467.00;;;;5114254;28;20282;-84
2022/09/10 08:22:34;;;;;;;0.33;0.20;;;19.60;80.10;20.40;96459.00;;;;5109183;28;20243;-83
2022/09/10 08:25:01;;;;;;;0.83;0.30;;;19.70;80.30;20.50;96472.00;;;;5103764;28;20206;-84
2022/09/10 08:27:28;;;;;;;0.27;0.20;;;19.80;80.40;20.60;96468.00;;;;5109201;28;20656;-85
2022/09/10 08:29:56;;;;;;;0.13;0.13;;;19.80;80.50;20.70;96467.00;;;;5115061;28;20710;-84
2022/09/10 08:32:23;;;;;;;0.30;0.30;;;19.90;80.50;20.80;96475.00;;;;5111805;28;20211;-85
2022/09/10 08:34:52;;;;;;;2.13;0.30;;;20.00;80.40;20.80;96478.00;;;;5110112;28;20648;-85
2022/09/10 08:37:19;;;;;;;0.87;0.50;;;20.10;79.70;20.90;96479.00;;;;5108203;28;20201;-86
2022/09/10 08:39:46;;;;;;;0.27;0.27;;;20.10;79.40;20.90;96483.00;;;;5103829;28;20195;-85
2022/09/10 08:42:25;;;;;;;1.13;0.30;;;20.20;79.40;21.00;96479.00;;;;5109576;28;20216;-84
2022/09/10 08:44:59;;;;;;;3.60;0.60;;;20.20;79.30;21.00;96484.00;;;;5095861;28;20212;-85
2022/09/10 08:47:36;;;;;;;0.20;0.20;;;20.30;79.10;21.00;96480.00;;;;5114187;28;20278;-85
2022/09/10 08:50:15;;;;;;;0.20;0.20;;;20.30;78.80;21.10;96479.00;;;;5109815;28;20193;-85
2022/09/10 08:52:49;;;;;;;0.30;0.30;;;20.40;78.70;21.20;96479.00;;;;5113978;28;20222;-86
2022/09/10 08:55:30;;;;;;;0.40;0.10;;;20.50;78.90;21.30;96484.00;;;;5114185;28;20317;-85
2022/09/10 08:58:03;;;;;;;0.10;0.10;;;20.60;79.10;21.40;96494.00;;;;5110596;28;20195;-85
2022/09/10 09:00:34;;;;;;;0.80;0.23;;;20.60;79.20;21.50;96483.00;;;;5114882;28;20217;-87
2022/09/10 09:03:12;;;;;;;0.30;0.20;;;20.70;79.10;21.60;96490.00;;;;5103744;28;20230;-84
2022/09/10 09:05:47;;;;;;;1.53;0.23;;;20.80;78.90;21.70;96490.00;;;;5111434;28;20198;-86
2022/09/10 09:08:19;;;;;;;0.87;0.27;;;20.90;77.60;21.70;96492.00;;;;5114111;28;20189;-85
2022/09/10 09:10:50;;;;;;;0.20;0.20;;;20.90;77.50;21.70;96496.00;;;;5105351;28;20638;-84
2022/09/10 09:14:12;;;;;;;0.67;0.30;;;21.00;77.20;21.70;96491.00;;;;5100484;28;20221;-84
2022/09/10 09:17:05;;;;;;;0.20;0.20;;;21.00;76.50;21.80;96489.00;;;;5107326;28;20300;-85
2022/09/10 09:19:34;;;;;;;0.47;0.30;;;21.10;76.60;21.80;96494.00;;;;5101663;28;20195;-86
2022/09/10 09:22:16;;;;;;;1.13;0.20;;;21.20;76.70;21.90;96501.00;;;;5111551;28;20736;-86
2022/09/10 09:24:56;;;;;;;0.10;0.10;;;21.20;76.50;21.90;96503.00;;;;5096482;28;20218;-86
2022/09/10 09:27:26;;;;;;;0.50;0.27;;;21.20;76.10;21.90;96492.00;;;;5095059;28;20839;-86
2022/09/10 09:30:02;;;;;;;0.30;0.30;;;21.20;75.60;21.80;96498.00;;;;5111999;28;20630;-86
2022/09/10 09:32:34;;;;;;;0.30;0.10;;;21.20;75.00;21.80;96503.00;;;;5108382;28;20296;-85
2022/09/10 09:35:16;;;;;;;0.83;0.20;;;21.20;74.90;21.80;96499.00;;;;5093058;28;20207;-86
2022/09/10 09:37:47;;;;;;;0.20;0.20;;;21.20;75.00;21.80;96499.00;;;;5104191;28;20234;-88
2022/09/10 09:40:27;;;;;;;0.33;0.20;;;21.20;75.30;21.90;96495.00;;;;5094063;28;20204;-87
2022/09/10 09:42:58;;;;;;;0.20;0.20;;;21.20;76.50;22.00;96492.00;;;;5094124;28;20299;-87
2022/09/10 09:45:37;;;;;;;1.17;0.30;;;21.30;76.00;22.10;96480.00;;;;5111277;28;20229;-86
2022/09/10 09:48:06;;;;;;;0.27;0.27;;;21.30;75.50;22.20;96483.00;;;;5104981;28;20191;-85
2022/09/10 09:50:38;;;;;;;0.30;0.30;;;21.40;76.20;22.40;96478.00;;;;5102545;28;20192;-85
2022/09/10 09:53:06;;;;;;;0.23;0.20;;;21.50;76.70;22.50;96477.00;;;;5106196;28;20602;-85
2022/09/10 09:55:41;;;;;;;0.30;0.30;;;21.60;76.30;22.60;96478.00;;;;5112627;28;20593;-87
2022/09/10 09:58:33;;;;;;;0.53;0.20;;;21.70;75.00;22.70;96484.00;;;;5104588;28;20191;-85
2022/09/10 10:01:15;;;;;;;0.40;0.13;;;21.90;74.80;22.80;96478.00;;;;5093492;28;20199;-85
2022/09/10 10:03:59;;;;;;;0.30;0.20;;;21.90;74.60;22.90;96468.00;;;;5093733;28;20621;-85
2022/09/10 10:06:31;;;;;;;0.27;0.20;;;22.00;74.90;23.00;96463.00;;;;5095339;28;20290;-86
2022/09/10 10:09:06;;;;;;;0.50;0.20;;;22.10;75.30;23.20;96465.00;;;;5100713;28;20203;-86
2022/09/10 10:11:46;;;;;;;0.20;0.10;;;22.30;74.80;23.30;96460.00;;;;5093481;28;20195;-85
2022/09/10 10:14:38;;;;;;;0.37;0.17;;;22.40;74.20;23.30;96461.00;;;;5095900;28;20245;-86
2022/09/10 10:17:36;;;;;;;1.90;0.20;;;22.40;73.50;23.30;96463.00;;;;5101752;28;20225;-86
2022/09/10 10:20:13;;;;;;;0.20;0.20;;;22.50;72.80;23.30;96463.00;;;;5102236;28;20222;-85
2022/09/10 10:22:42;;;;;;;0.27;0.27;;;22.50;73.10;23.30;96473.00;;;;5107903;28;20242;-86
2022/09/10 10:25:40;;;;;;;0.97;0.20;;;22.50;72.90;23.20;96463.00;;;;5108790;28;20927;-87
2022/09/10 10:28:24;;;;;;;1.13;0.20;;;22.50;70.90;23.00;96456.00;;;;5098766;28;20227;-85
2022/09/10 10:30:55;;;;;;;0.20;0.20;;;22.50;70.90;23.00;96449.00;;;;5113216;28;20202;-85
2022/09/10 10:33:28;;;;;;;0.50;0.30;;;22.50;71.60;22.90;96445.00;;;;5113545;28;20229;-84
2022/09/10 10:36:08;;;;;;;0.37;0.13;;;22.40;72.20;22.90;96444.00;;;;5111575;28;20206;-84
2022/09/10 10:38:39;;;;;;;1.03;0.10;;;22.40;71.90;22.90;96451.00;;;;5112288;28;20179;-85
2022/09/10 10:41:41;;;;;;;1.50;0.27;;;22.40;72.40;22.90;96442.00;;;;5110230;28;20197;-85
2022/09/10 10:44:35;;;;;;;0.20;0.20;;;22.40;72.50;23.00;96447.00;;;;5088564;28;20636;-85
2022/09/10 10:47:24;;;;;;;0.17;0.17;;;22.30;72.20;23.00;96441.00;;;;5097414;28;20202;-85
2022/09/10 10:50:08;;;;;;;0.73;0.27;;;22.40;71.90;23.00;96439.00;;;;5092157;28;20206;-85
2022/09/10 10:52:58;;;;;;;0.30;0.20;;;22.40;72.10;23.00;96436.00;;;;5111163;22;20222;-86
2022/09/10 10:55:33;;;;;;;0.30;0.20;;;22.40;72.30;22.90;96437.00;;;;5111574;28;20282;-86
2022/09/10 10:58:25;;;;;;;0.10;0.10;;;22.30;71.70;22.90;96440.00;;;;5100735;28;20285;-85
2022/09/10 11:01:02;;;;;;;0.30;0.20;;;22.30;70.10;22.90;96440.00;;;;5092450;28;20187;-86
2022/09/10 11:03:38;;;;;;;0.20;0.20;;;22.30;70.40;22.80;96436.00;;;;5104284;28;20220;-86
2022/09/10 11:06:13;;;;;;;0.40;0.10;;;22.30;70.20;22.80;96436.00;;;;5111408;28;20198;-86
2022/09/10 11:08:49;;;;;;;0.20;0.10;;;22.30;69.60;22.70;96429.00;;;;5112673;28;20187;-86
2022/09/10 11:11:22;;;;;;;0.20;0.10;;;22.20;69.70;22.70;96422.00;;;;5101133;28;20260;-86
2022/09/10 11:13:59;;;;;;;0.37;0.10;;;22.20;69.70;22.60;96416.00;;;;5092155;28;20762;-86
2022/09/10 11:16:34;;;;;;;0.20;0.20;;;22.20;70.20;22.60;96420.00;;;;5094695;28;20222;-86